TAF Text Data
IDs:
Format:
Raw Decoded Include METAR

Data at: 0124 UTC 17 Jul 2019

Region: TOP
KATL 162331Z 1700/1806 22010KT P6SM SCT060 SCT250
  FM170200 21004KT P6SM SCT250
  FM171500 26008KT P6SM FEW035 SCT250
  FM171800 25012KT P6SM SCT050 SCT250
  FM180200 26005KT P6SM FEW070 SCT250


KBOS 162322Z 1700/1806 19010KT P6SM BKN250
  FM170700 22010KT P6SM SCT250
  FM171500 24010KT P6SM VCSH BKN070
  FM171800 23012KT 6SM -RA BR VCTS BKN050CB


KBWI 170103Z 1701/1806 VRB03KT P6SM SCT050 BKN130
  TEMPO 1701/1702 VRB30KT 2SM TSRA OVC030CB
  FM171600 22008KT P6SM BKN050
  FM172200 20006KT 6SM -SHRA VCTS BKN050CB BKN130
  FM180400 23005KT P6SM SCT050 BKN130


KCLE 162352Z 1700/1806 20005KT P6SM VCTS BKN080CB
  TEMPO 1700/1704 VRB12G38KT 1/2SM TSRA OVC012CB
  FM170400 20006KT P6SM VCTS OVC060CB
  TEMPO 1704/1708 4SM SHRA BR OVC025
  FM171600 VRB03KT 5SM TSRA OVC020CB
  TEMPO 1716/1720 3SM TSRA OVC012CB
  FM172000 33006KT P6SM VCTS BKN025CB
  FM180000 35006KT P6SM SCT040


KCLT 162338Z 1700/1806 21006KT P6SM FEW070 BKN250
  FM170400 00000KT P6SM SCT250
  FM171400 23006KT P6SM SCT050
  FM171800 23012G19KT P6SM SCT060
  FM172300 25007KT P6SM BKN250


KCVG 170115Z 1701/1806 20008KT P6SM VCTS BKN060CB
  TEMPO 1701/1704 4SM -TSRA OVC040CB
  FM170600 20008KT 4SM -SHRA BR OVC025
  FM170900 20008KT 4SM -SHRA BR OVC015
  FM171200 23008KT 4SM -SHRA BR OVC008
  FM171600 25009KT P6SM VCSH OVC015
  FM171800 27008KT P6SM VCSH BKN022
  FM172200 29008KT P6SM BKN060


KDCA 162320Z 1700/1806 19005KT P6SM SCT050 BKN130
  FM171500 20010KT P6SM SCT050 SCT130
  FM172200 20010KT P6SM VCTS BKN050CB BKN130
  FM180400 22005KT P6SM SCT050 BKN130


KDEN 170025Z 1700/1806 12010KT P6SM FEW100 SCT140
  FM170400 21010KT P6SM SKC
  FM171900 31012G20KT P6SM SCT100
  FM180000 35012KT P6SM SCT100 BKN140


KDFW 162335Z 1700/1806 18012KT P6SM FEW060 SCT250

KDTW 162330Z 1700/1806 VRB05KT 6SM BR VCSH SCT025 BKN050 OVC080
  TEMPO 1700/1702 1SM +TSRA BR BKN015CB OVC025
  FM170500 21004KT 4SM SHRA BR SCT012 BKN022 OVC040
  FM170900 VRB04KT 5SM BR VCSH OVC018
  FM171500 03006KT P6SM BKN045
  FM180000 01004KT P6SM SCT045 BKN090


KEWR 162341Z 1700/1806 23007KT P6SM SCT150 BKN250
  FM171600 23010G16KT P6SM SCT150 BKN250
  FM172200 23010KT P6SM VCSH SCT025 BKN040
  PROB30 1722/1804 3SM TSRA BKN025 BKN040CB


KFLL 162331Z 1700/1806 13005KT P6SM FEW025 SCT250
  FM171500 12011KT P6SM SCT025 SCT060
  FM180000 12005KT P6SM FEW025 SCT250


KIAD 162320Z 1700/1806 VRB03KT P6SM SCT050 BKN130
  FM171500 22008KT P6SM SCT050 SCT130
  FM172200 22008KT P6SM VCTS BKN050CB BKN130
  FM180400 22005KT P6SM SCT050 BKN130


KIAH 162322Z 1700/1806 16012KT P6SM FEW040 BKN250
  FM170200 17006KT P6SM FEW025 SCT250
  TEMPO 1709/1713 BKN015
  FM171300 16004KT P6SM BKN025
  FM171600 16011KT P6SM SCT040
  FM180100 16007KT P6SM SCT250


KJFK 162341Z 1700/1806 19015KT P6SM FEW045 SCT250
  FM170200 21008KT P6SM SCT150 BKN250
  FM171500 20010KT P6SM SCT150 BKN250
  FM171800 19015KT P6SM SCT050 SCT150 BKN250
  FM172300 20012KT P6SM VCSH SCT025 BKN040
  PROB30 1723/1805 3SM TSRA BKN025 BKN040CB


KLAS 162320Z 1700/1806 23018G30KT P6SM SKC
  FM170300 23012KT P6SM SKC
  FM172100 22015G25KT P6SM SKC
  FM180300 23010KT P6SM SKC


KLAX 162329Z 1700/1806 26010KT P6SM FEW008
  FM170400 26008KT 6SM HZ SCT010
  FM170700 VRB03KT 5SM BR OVC008
  FM171600 21007KT 6SM HZ BKN010
  FM172000 26010KT P6SM SKC
  FM180300 25009KT P6SM FEW250


KLGA 162341Z 1700/1806 19010KT P6SM BKN250
  FM170200 22006KT P6SM SCT150 BKN250
  FM171500 24007KT P6SM SCT150 BKN250
  FM171900 19012G18KT P6SM SCT050 SCT150 BKN250
  FM172300 20010KT P6SM VCSH SCT025 BKN040
  PROB30 1723/1805 3SM TSRA BKN025 BKN040CB


KMCO 162341Z 1700/1806 13006KT P6SM FEW050 SCT110 BKN250
  FM171400 17004KT P6SM SCT030
  FM172000 12008KT P6SM VCTS SCT050CB SCT250
  FM180000 VRB05KT P6SM FEW045 SCT110 BKN250


KMDW 162336Z 1700/1806 15004KT P6SM BKN080
  FM170700 00000KT 6SM BR SCT100 SCT250
  FM171300 VRB03KT P6SM SCT040 BKN100
  FM171900 06008KT P6SM SCT050


KMEM 162330Z 1700/1806 21008KT P6SM SCT030 BKN050
  FM170600 21007KT P6SM VCSH SCT020 OVC030
  TEMPO 1709/1711 5SM BR OVC009
  FM171100 21008KT P6SM BKN010
  FM171700 24009KT P6SM VCSH BKN035
  FM180100 21007KT P6SM FEW030 BKN250


KMIA 162331Z 1700/1806 12005KT P6SM FEW030 SCT250
  FM170200 VRB03KT P6SM FEW025 SCT250
  FM171500 12010KT P6SM SCT030 SCT060
  FM180000 11005KT P6SM FEW025 SCT250


KMSP 162338Z 1700/1806 VRB03KT P6SM FEW035 SCT120
  FM171400 15007KT P6SM BKN070 OVC120
  FM171800 16013G20KT P6SM SCT050 BKN100
  PROB30 1722/1804 3SM TSRA OVC035CB


KORD 162336Z 1700/1806 15004KT P6SM BKN080
  FM170700 00000KT 6SM BR SCT100 SCT250
  FM171300 VRB03KT P6SM SCT040 BKN100
  FM172000 06008KT P6SM SCT050


KPDX 162320Z 1700/1724 32006KT P6SM SCT060 SCT250
  FM170800 VRB04KT P6SM SCT025 BKN050
  FM171300 18009KT P6SM SCT025 OVC050
  FM171800 18010KT P6SM -SHRA SCT025 OVC050


KPHL 170111Z 1701/1806 20009KT P6SM VCTS SCT060CB BKN200
  TEMPO 1702/1703 29010KT 6SM -SHRA BKN060
  FM170300 22008KT P6SM FEW060 BKN200
  FM172300 24010KT P6SM -SHRA VCTS BKN050CB


KPHX 170115Z 1701/1806 25012KT P6SM FEW120 FEW200
  FM171000 12006KT P6SM FEW120
  FM171400 18007KT P6SM FEW120
  FM172000 25010G18KT P6SM FEW120 SCT250
  FM180400 25009KT P6SM FEW120


KPIT 162320Z 1700/1806 18003KT P6SM SCT150
  FM171400 21005KT P6SM VCSH BKN050
  FM171600 21006KT P6SM -SHRA VCTS BKN025CB
  FM172300 23004KT P6SM BKN030
  FM180200 28003KT 6SM BR VCSH BKN100
  FM180500 31003KT 6SM BR BKN015


KSAN 162320Z 1700/1806 23006KT P6SM OVC009
  FM171000 18005KT 3SM BR OVC006
  FM171600 18007KT 6SM HZ BKN009
  FM171900 20010KT P6SM SCT012
  FM180100 23006KT P6SM BKN012


KSEA 162321Z 1700/1806 VRB04KT P6SM SCT040 BKN250
  FM170900 21006KT P6SM BKN040
  FM171200 18008KT P6SM OVC030
  FM171700 18012KT P6SM -RA OVC025
  FM172100 21012KT P6SM -SHRA BKN025 BKN050


KSFO 162340Z 1700/1806 28030G40KT P6SM FEW012
  FM170400 28017G24KT P6SM FEW010
  FM170500 VRB04KT P6SM FEW008
  FM171400 04006KT P6SM FEW008
  FM172100 30018G26KT P6SM FEW010
  FM180400 28012KT P6SM FEW010


KSLC 162320Z 1700/1806 32008KT P6SM SCT120
  FM170900 16006KT P6SM FEW120
  FM171700 32008KT P6SM SCT120
  FM180300 17007KT P6SM FEW120


KSTL 162330Z 1700/1806 VRB04KT P6SM BKN080
  FM171800 20008KT P6SM SCT050
  FM180100 17005KT P6SM FEW050


KTPA 162335Z 1700/1806 32005KT P6SM VCTS SCT040CB BKN150
  TEMPO 1700/1702 VRB10G15KT 2SM TSRA BKN020CB OVC040
  FM170300 VRB03KT P6SM SCT030 BKN200
  FM171800 24007KT P6SM VCTS FEW045CB SCT110
  FM172300 31005KT P6SM VCTS SCT040CB BKN200